Terminal Aerodrome Forecast
Issued by NWS

Home | Current Version | Previous Version | Text Only | Print | Product List | Glossary On
Versions: 1 2 3 4 5 6 7 8 9 10 11 12 13 14 15 16 17
000
FTUS46 KLOX 222300
TAFSBA
TAF
KSBA 222339Z 2300/2324 24007KT P6SM SKC
     FM230200 VRB03KT P6SM SKC
     FM231400 VRB03KT 6SM BR SCT006
     FM231700 16005KT P6SM SKC
     FM231900 19006KT P6SM SKC
     FM232100 24007KT P6SM SKC=

USA.gov is the U.S. government's official web portal to all federal, state and local government web resources and services.